Startpagina
METAR-TAF:

METAR-TAF

Vliegvelden :

Vliegbasis Deelen

Arnhem, Nederland

breedte: 52-04N, lengte: 005-53E, hoogte: 48 m

Actueel weer

Dit bericht is 16 minuten geleden gemaakt, om 15:55 UTC
Wind 10 kt uit het oosten, variërend tussen het noordnoordoosten en het zuidzuidoosten
Temperatuur 24°C
Vochtigheid 41%
Druk 1020 hPa
Zicht 10 km of meer
Weinig wolken op 5700 ft

METAR: EHDL 201555Z AUTO 08010KT 030V160 9999 FEW057 24/10 Q1020 BLU

Tijdstip: 18:11 (16:11 UTC)


TAF: ontbreekt

Waarnemingen en weersverwachtingen van meer dan 4000 vliegvelden (METAR en TAF).

De beschikbare stations zijn de gele en rode punten op de kaart.

Ga met uw muis naar het station om de naam te zien.

Klik dan om waarnemingen en weersverwachtingen te zien.

kaart wijzigen: klik op de groene knoppen met een zwart kruis om in te zoomen, op de groene knop met een streepje om uit te zoomen of op de groene pijlen voor aangrenzende kaarten.


METAR-TAF: